Time;durP1;ratioP1;P1;durP2;ratioP2;P2;SDS_P1;SDS_P2;PMS_P1;PMS_P2;Temp;Humidity;BMP_temperature;BMP_pressure;BME280_temperature;BME280_humidity;BME280_pressure;Samples;Min_cycle;Max_cycle;Signal;HPM_P1;HPM_P2
2021/10/08 00:00:47;;;;;;;9.10;5.13;;;7.90;99.90;;;;;;6271074;28;20451;-79
2021/10/08 00:03:48;;;;;;;5.50;4.80;;;7.60;99.90;;;;;;6236517;28;20059;-79
2021/10/08 00:06:49;;;;;;;5.35;4.82;;;7.40;99.90;;;;;;6251387;28;20029;-79
2021/10/08 00:09:49;;;;;;;6.50;4.93;;;7.80;99.90;;;;;;6270717;28;20028;-79
2021/10/08 00:12:50;;;;;;;5.32;4.78;;;7.80;99.90;;;;;;6220077;28;20141;-79
2021/10/08 00:15:50;;;;;;;7.38;5.15;;;8.10;99.90;;;;;;6270279;28;20367;-79
2021/10/08 00:18:51;;;;;;;6.68;4.60;;;7.90;99.90;;;;;;6270382;28;20033;-79
2021/10/08 00:21:51;;;;;;;9.20;4.72;;;8.10;99.90;;;;;;6235700;28;20128;-79
2021/10/08 00:24:52;;;;;;;6.18;4.57;;;7.60;99.90;;;;;;6236076;28;20371;-80
2021/10/08 00:27:53;;;;;;;9.60;5.00;;;7.60;99.90;;;;;;6252407;28;20036;-79
2021/10/08 00:30:53;;;;;;;5.65;4.70;;;7.50;99.90;;;;;;6252349;28;20467;-79
2021/10/08 00:33:54;;;;;;;8.07;5.30;;;7.50;99.90;;;;;;6235546;28;20029;-79
2021/10/08 00:36:54;;;;;;;5.97;4.80;;;7.50;99.90;;;;;;6252118;28;20029;-80
2021/10/08 00:39:55;;;;;;;5.30;4.32;;;7.60;99.90;;;;;;6251846;28;20095;-79
2021/10/08 00:42:55;;;;;;;6.63;5.20;;;8.20;99.90;;;;;;6252295;28;20250;-79
2021/10/08 00:45:56;;;;;;;7.47;4.55;;;7.80;99.90;;;;;;6252125;28;20451;-79
2021/10/08 00:48:57;;;;;;;5.47;4.95;;;7.70;99.90;;;;;;6252424;28;20452;-79
2021/10/08 00:51:57;;;;;;;6.72;4.78;;;7.70;99.90;;;;;;6252042;28;20072;-78
2021/10/08 00:54:58;;;;;;;6.03;5.30;;;7.80;99.90;;;;;;6251451;28;20033;-79
2021/10/08 00:57:58;;;;;;;6.03;5.43;;;7.30;99.90;;;;;;6269117;28;20441;-78
2021/10/08 01:00:59;;;;;;;6.47;5.00;;;7.50;99.90;;;;;;6269233;28;20114;-79
2021/10/08 01:03:59;;;;;;;7.97;4.95;;;7.50;99.90;;;;;;6269111;28;20043;-79
2021/10/08 01:07:00;;;;;;;9.90;5.30;;;7.40;99.90;;;;;;6251254;28;20047;-79
2021/10/08 01:10:01;;;;;;;6.13;4.53;;;7.40;99.90;;;;;;6251516;28;20021;-79
2021/10/08 01:13:01;;;;;;;6.38;4.80;;;7.70;99.90;;;;;;6251031;28;20029;-79
2021/10/08 01:16:02;;;;;;;5.90;4.97;;;7.20;99.90;;;;;;6268773;28;20049;-79
2021/10/08 01:19:03;;;;;;;6.63;4.63;;;7.30;99.90;;;;;;6251393;28;20040;-79
2021/10/08 01:22:03;;;;;;;6.05;4.85;;;8.60;99.90;;;;;;6251062;28;20048;-78
2021/10/08 01:25:04;;;;;;;6.25;5.03;;;7.40;99.90;;;;;;6234433;28;20041;-78
2021/10/08 01:28:05;;;;;;;5.18;4.68;;;7.10;99.90;;;;;;6250980;28;20493;-79
2021/10/08 01:31:06;;;;;;;8.18;4.97;;;;;;;;;;6234416;28;20025;-79
2021/10/08 01:34:07;;;;;;;6.28;5.05;;;7.10;99.90;;;;;;6250353;28;20044;-79
2021/10/08 01:37:07;;;;;;;7.07;4.88;;;7.30;99.90;;;;;;6251052;28;20033;-79
2021/10/08 01:40:09;;;;;;;6.30;5.20;;;7.20;99.90;;;;;;6268506;28;20039;-79
2021/10/08 01:43:09;;;;;;;7.13;4.97;;;7.10;99.90;;;;;;6250777;28;20033;-79
2021/10/08 01:46:10;;;;;;;9.20;5.43;;;7.50;99.90;;;;;;6250492;28;20123;-79
2021/10/08 01:49:11;;;;;;;6.13;5.30;;;7.40;99.90;;;;;;6268287;28;20024;-79
2021/10/08 01:52:11;;;;;;;6.80;5.03;;;7.40;99.90;;;;;;6250547;28;20025;-79
2021/10/08 01:55:12;;;;;;;6.18;4.90;;;7.00;99.90;;;;;;6250337;28;20503;-79
2021/10/08 01:58:13;;;;;;;5.43;4.70;;;;;;;;;;6268218;28;20027;-79
2021/10/08 02:01:13;;;;;;;6.68;5.32;;;7.00;99.90;;;;;;6233764;28;20029;-79
2021/10/08 02:04:14;;;;;;;5.65;4.75;;;7.00;99.90;;;;;;6250317;28;20032;-79
2021/10/08 02:07:14;;;;;;;6.25;4.63;;;7.00;99.90;;;;;;6249983;28;20464;-79
2021/10/08 02:10:15;;;;;;;6.30;4.93;;;7.10;99.90;;;;;;6249758;28;20025;-79
2021/10/08 02:13:18;;;;;;;6.97;4.65;;;7.10;99.90;;;;;;6250152;28;20029;-79
2021/10/08 02:16:21;;;;;;;;;;;8.20;99.90;;;;;;6234096;28;20609;-79
2021/10/08 02:19:22;;;;;;;5.13;4.63;;;6.70;99.90;;;;;;6268295;28;19908;-79
2021/10/08 02:22:22;;;;;;;6.43;4.60;;;6.90;99.90;;;;;;6267689;28;20849;-79
2021/10/08 02:25:23;;;;;;;7.50;4.70;;;6.80;99.90;;;;;;6250128;28;20037;-79
2021/10/08 02:28:23;;;;;;;6.05;4.47;;;6.70;99.90;;;;;;6267446;28;20492;-79
2021/10/08 02:31:24;;;;;;;6.32;5.32;;;6.70;99.90;;;;;;6236669;28;20021;-79
2021/10/08 02:34:25;;;;;;;5.05;4.55;;;6.60;99.90;;;;;;6254394;28;20076;-78
2021/10/08 02:37:25;;;;;;;6.63;5.13;;;7.50;99.90;;;;;;6254877;28;20052;-79
2021/10/08 02:40:26;;;;;;;8.10;5.05;;;7.00;99.90;;;;;;6254655;28;20044;-79
2021/10/08 02:43:26;;;;;;;5.68;4.75;;;6.30;99.90;;;;;;6254633;28;20558;-78
2021/10/08 02:46:27;;;;;;;8.65;5.20;;;6.30;99.90;;;;;;6254350;28;20550;-79
2021/10/08 02:49:28;;;;;;;5.75;4.88;;;;;;;;;;6254548;28;20021;-79
2021/10/08 02:52:28;;;;;;;8.55;4.63;;;6.70;99.90;;;;;;6272452;28;20017;-79
2021/10/08 02:55:29;;;;;;;9.93;5.47;;;6.30;99.90;;;;;;6237928;28;20033;-78
2021/10/08 02:58:30;;;;;;;6.18;4.97;;;6.50;99.90;;;;;;6221495;28;20078;-79
2021/10/08 03:01:31;;;;;;;11.65;8.13;;;;;;;;;;6254129;28;20167;-79
2021/10/08 03:04:31;;;;;;;6.13;5.30;;;6.40;99.90;;;;;;6272154;28;20520;-79
2021/10/08 03:07:32;;;;;;;7.03;5.60;;;6.70;99.90;;;;;;6254507;28;20032;-78
2021/10/08 03:10:32;;;;;;;7.22;6.20;;;6.50;99.90;;;;;;6237286;28;20029;-79
2021/10/08 03:13:33;;;;;;;11.30;7.68;;;6.40;99.90;;;;;;6271950;28;20028;-78
2021/10/08 03:16:34;;;;;;;6.78;5.88;;;6.50;99.90;;;;;;6253855;28;20087;-78
2021/10/08 03:19:34;;;;;;;7.82;6.07;;;6.50;99.90;;;;;;6237450;28;20451;-78
2021/10/08 03:22:35;;;;;;;10.02;5.95;;;6.50;99.90;;;;;;6253708;28;20032;-78
2021/10/08 03:25:36;;;;;;;5.75;4.72;;;;;;;;;;6254118;28;20029;-78
2021/10/08 03:28:37;;;;;;;7.57;5.80;;;6.30;99.90;;;;;;6271411;28;20121;-79
2021/10/08 03:31:38;;;;;;;7.47;6.32;;;;;;;;;;6271737;28;20013;-79
2021/10/08 03:34:39;;;;;;;7.03;5.93;;;;;;;;;;6271806;28;20037;-79
2021/10/08 03:41:20;;;;;;;6.95;5.47;;;6.60;99.90;;;;;;6254240;28;20053;-79
2021/10/08 03:44:15;;;;;;;8.23;5.00;;;;;;;;;;6238776;28;20068;-79
2021/10/08 03:47:21;;;;;;;9.48;7.93;;;;;;;;;;6237128;28;20036;-79
2021/10/08 03:50:22;;;;;;;9.43;6.65;;;6.30;99.90;;;;;;6253586;28;20487;-79
2021/10/08 03:53:23;;;;;;;6.40;5.70;;;;;;;;;;6253417;28;20115;-79
2021/10/08 03:56:24;;;;;;;6.10;5.45;;;;;;;;;;6236356;28;20079;-79
2021/10/08 03:59:24;;;;;;;9.43;5.82;;;6.60;99.90;;;;;;6270894;28;20020;-79
2021/10/08 04:02:25;;;;;;;7.55;5.75;;;6.50;99.90;;;;;;6252757;28;20029;-78
2021/10/08 04:05:26;;;;;;;6.07;5.45;;;6.40;99.90;;;;;;6253086;28;20275;-79
2021/10/08 04:08:27;;;;;;;6.43;5.82;;;6.30;99.90;;;;;;6252698;28;20758;-79
2021/10/08 04:11:27;;;;;;;6.63;5.72;;;;;;;;;;6252757;28;20475;-79
2021/10/08 04:14:30;;;;;;;7.20;5.30;;;6.40;99.90;;;;;;6270839;28;20025;-79
2021/10/08 04:17:31;;;;;;;;;;;6.70;99.90;;;;;;6270976;28;20076;-79
2021/10/08 04:20:31;;;;;;;5.65;5.05;;;6.30;99.90;;;;;;6270770;28;19941;-79
2021/10/08 04:23:32;;;;;;;10.85;6.45;;;6.30;99.90;;;;;;6236563;28;20883;-79
2021/10/08 04:26:33;;;;;;;6.50;5.90;;;;;;;;;;6252370;28;20041;-79
2021/10/08 04:29:33;;;;;;;7.10;5.85;;;6.50;99.90;;;;;;6252500;28;20025;-78
2021/10/08 04:32:34;;;;;;;9.27;7.28;;;6.60;99.90;;;;;;6252550;28;20113;-79
2021/10/08 04:35:34;;;;;;;8.85;6.60;;;7.00;99.90;;;;;;6252045;28;20395;-79
2021/10/08 04:38:35;;;;;;;7.40;6.22;;;6.60;99.90;;;;;;6235093;28;20390;-79
2021/10/08 04:41:36;;;;;;;7.90;5.75;;;8.10;99.90;;;;;;6269938;28;20064;-79
2021/10/08 04:44:36;;;;;;;8.68;6.05;;;6.60;99.90;;;;;;6269685;28;20033;-79
2021/10/08 04:47:37;;;;;;;8.90;6.97;;;6.50;99.90;;;;;;6248638;28;20032;-79
2021/10/08 04:50:37;;;;;;;11.18;8.45;;;6.90;99.90;;;;;;6269554;28;20032;-78
2021/10/08 04:53:38;;;;;;;9.27;8.05;;;6.50;99.90;;;;;;6269165;28;20032;-80
2021/10/08 04:56:39;;;;;;;12.88;8.18;;;6.50;99.90;;;;;;6251491;28;20336;-81
2021/10/08 04:59:39;;;;;;;9.38;7.18;;;6.50;99.90;;;;;;6235201;28;20035;-80
2021/10/08 05:02:40;;;;;;;10.27;7.32;;;7.40;99.90;;;;;;6235283;28;20021;-80
2021/10/08 05:05:47;;;;;;;8.32;7.10;;;6.90;99.90;;;;;;6235123;28;20041;-78
2021/10/08 05:08:48;;;;;;;7.32;6.30;;;6.70;99.90;;;;;;6235493;28;20033;-77
2021/10/08 05:11:48;;;;;;;8.10;6.63;;;6.70;99.90;;;;;;6251413;28;20108;-78
2021/10/08 05:14:49;;;;;;;9.90;6.85;;;7.10;99.90;;;;;;6218301;28;20037;-77
2021/10/08 05:17:49;;;;;;;8.07;6.45;;;7.40;99.90;;;;;;6268633;28;20483;-77
2021/10/08 05:20:50;;;;;;;6.78;6.07;;;7.00;99.90;;;;;;6268818;28;20421;-77
2021/10/08 05:23:50;;;;;;;8.73;6.07;;;6.70;99.90;;;;;;6251323;28;20029;-78
2021/10/08 05:26:51;;;;;;;7.68;5.72;;;6.80;99.90;;;;;;6251011;28;20060;-77
2021/10/08 05:29:52;;;;;;;10.32;7.32;;;7.10;99.90;;;;;;6250641;28;20060;-78
2021/10/08 05:32:52;;;;;;;9.10;6.93;;;6.40;99.90;;;;;;6269015;28;20368;-78
2021/10/08 05:35:53;;;;;;;7.88;7.05;;;6.70;99.90;;;;;;6268715;28;20100;-78
2021/10/08 05:38:53;;;;;;;7.53;6.35;;;6.60;99.90;;;;;;6251041;28;20531;-78
2021/10/08 05:41:54;;;;;;;8.52;6.90;;;6.60;99.90;;;;;;6250192;28;20132;-78
2021/10/08 05:44:55;;;;;;;14.23;7.35;;;6.60;99.90;;;;;;6268479;28;20095;-78
2021/10/08 05:47:55;;;;;;;9.77;7.82;;;6.90;99.90;;;;;;6268855;28;20044;-77
2021/10/08 05:50:56;;;;;;;13.75;8.32;;;6.80;99.90;;;;;;6268290;28;20518;-78
2021/10/08 05:53:57;;;;;;;8.75;7.07;;;;;;;;;;6250434;28;20533;-78
2021/10/08 05:56:57;;;;;;;9.43;7.65;;;6.60;99.90;;;;;;6250550;28;20060;-77
2021/10/08 05:59:58;;;;;;;12.23;8.40;;;7.10;99.90;;;;;;6233710;28;20029;-77
2021/10/08 06:03:00;;;;;;;9.23;7.50;;;6.40;99.90;;;;;;6233951;28;20032;-77
2021/10/08 06:06:01;;;;;;;9.52;8.63;;;6.80;99.90;;;;;;6267329;28;20455;-78
2021/10/08 06:09:02;;;;;;;10.05;8.82;;;6.60;99.90;;;;;;6267867;28;20048;-78
2021/10/08 06:12:02;;;;;;;10.02;8.05;;;6.70;99.90;;;;;;6233876;28;20029;-77
2021/10/08 06:15:03;;;;;;;10.85;7.63;;;6.70;99.90;;;;;;6268070;28;20406;-79
2021/10/08 06:18:04;;;;;;;10.18;8.57;;;6.80;99.90;;;;;;6233248;28;20076;-79
2021/10/08 06:21:05;;;;;;;10.52;8.20;;;6.80;99.90;;;;;;6267983;28;20428;-79
2021/10/08 06:24:05;;;;;;;14.30;9.57;;;7.00;99.90;;;;;;6267906;28;20115;-79
2021/10/08 06:27:06;;;;;;;10.15;9.05;;;7.10;99.90;;;;;;6268112;28;20106;-79
2021/10/08 06:30:08;;;;;;;9.38;7.90;;;7.30;99.90;;;;;;6233151;28;20021;-79
2021/10/08 06:33:09;;;;;;;11.27;8.43;;;7.70;99.90;;;;;;6250490;28;20033;-78
2021/10/08 06:36:09;;;;;;;8.18;7.38;;;7.40;99.90;;;;;;6233296;28;20044;-78
2021/10/08 06:39:10;;;;;;;11.52;8.00;;;7.70;99.90;;;;;;6233915;28;20394;-79
2021/10/08 06:42:11;;;;;;;16.17;8.35;;;7.90;99.90;;;;;;6233563;28;20363;-79
2021/10/08 06:45:12;;;;;;;9.25;7.35;;;;;;;;;;6252863;28;20040;-79
2021/10/08 06:48:13;;;;;;;10.80;7.75;;;;;;;;;;6267807;28;20070;-79
2021/10/08 06:51:14;;;;;;;10.52;8.90;;;;;;;;;;6233196;28;20049;-79
2021/10/08 06:54:14;;;;;;;8.38;7.28;;;9.40;99.90;;;;;;6249755;28;20029;-79
2021/10/08 06:57:15;;;;;;;8.07;7.22;;;;;;;;;;6249893;28;20110;-79
2021/10/08 07:00:16;;;;;;;8.20;6.63;;;;;;;;;;6249710;28;20021;-79
2021/10/08 07:03:17;;;;;;;9.50;6.63;;;12.10;99.90;;;;;;6249585;28;20035;-79
2021/10/08 07:06:17;;;;;;;6.85;5.72;;;13.00;99.90;;;;;;6217011;28;20091;-78
2021/10/08 07:09:18;;;;;;;8.57;6.45;;;13.60;99.90;;;;;;6249396;28;20036;-79
2021/10/08 07:12:19;;;;;;;8.85;5.93;;;14.20;99.90;;;;;;6249713;28;20021;-79
2021/10/08 07:15:19;;;;;;;8.07;6.28;;;14.60;99.90;;;;;;6267484;28;20025;-79
2021/10/08 07:18:24;;;;;;;7.18;5.60;;;15.60;99.90;;;;;;6271956;28;20056;-79
2021/10/08 07:21:25;;;;;;;8.75;5.97;;;15.60;99.90;;;;;;6238058;28;20029;-79
2021/10/08 07:24:25;;;;;;;8.10;6.15;;;16.20;99.90;;;;;;6237235;28;20141;-79
2021/10/08 07:27:26;;;;;;;10.35;5.70;;;16.30;99.90;;;;;;6254138;28;20418;-79
2021/10/08 07:30:26;;;;;;;6.22;5.57;;;17.10;99.90;;;;;;6237094;28;20102;-79
2021/10/08 07:33:27;;;;;;;5.38;4.88;;;17.30;99.90;;;;;;6237333;28;20025;-79
2021/10/08 07:36:27;;;;;;;5.75;5.13;;;17.50;99.90;;;;;;6236835;28;20037;-79
2021/10/08 07:39:28;;;;;;;5.30;4.80;;;17.90;99.90;;;;;;6236783;28;20029;-79
2021/10/08 07:42:29;;;;;;;6.80;5.50;;;18.20;99.90;;;;;;6253614;28;20029;-79
2021/10/08 07:45:29;;;;;;;6.90;5.25;;;18.20;99.90;;;;;;6253458;28;20060;-79
2021/10/08 07:48:30;;;;;;;6.07;5.22;;;18.60;99.90;;;;;;6253369;28;20033;-79
2021/10/08 07:51:32;;;;;;;6.78;5.55;;;18.90;99.90;;;;;;6253348;28;20021;-79
2021/10/08 07:54:33;;;;;;;;;;;19.20;99.90;;;;;;6254000;28;20025;-79
2021/10/08 07:57:33;;;;;;;6.38;5.63;;;19.30;99.90;;;;;;6252989;28;19916;-79
2021/10/08 08:00:36;;;;;;;6.72;5.03;;;19.70;99.90;;;;;;6271379;28;20029;-79
2021/10/08 08:03:37;;;;;;;4.50;3.95;;;20.20;98.40;;;;;;6253430;28;20029;-79
2021/10/08 08:06:37;;;;;;;4.95;4.03;;;20.60;97.60;;;;;;6252926;28;20433;-79
2021/10/08 08:09:38;;;;;;;4.25;3.85;;;21.10;95.40;;;;;;6236255;28;20025;-79
2021/10/08 08:12:39;;;;;;;5.25;4.20;;;21.40;94.40;;;;;;6236403;28;20020;-79
2021/10/08 08:15:39;;;;;;;5.93;4.60;;;21.60;92.40;;;;;;6252379;28;20080;-79
2021/10/08 08:18:41;;;;;;;4.60;3.90;;;21.20;91.80;;;;;;6236107;28;20021;-79
2021/10/08 08:21:42;;;;;;;4.50;4.10;;;19.80;93.40;;;;;;6252832;28;20031;-79
2021/10/08 08:24:42;;;;;;;5.40;4.20;;;18.70;97.00;;;;;;6235780;28;20075;-79
2021/10/08 08:27:43;;;;;;;4.63;4.10;;;17.90;98.50;;;;;;6235194;28;20052;-79
2021/10/08 08:30:44;;;;;;;6.20;4.72;;;17.20;99.90;;;;;;6251967;28;20033;-79
2021/10/08 08:33:44;;;;;;;6.13;5.20;;;17.00;99.90;;;;;;6252701;28;20060;-79
2021/10/08 08:36:45;;;;;;;4.95;4.45;;;17.20;99.90;;;;;;6252168;28;20367;-79
2021/10/08 08:39:45;;;;;;;5.03;4.53;;;17.40;99.90;;;;;;6252177;28;20017;-79
2021/10/08 08:42:46;;;;;;;5.75;4.60;;;17.70;99.90;;;;;;6269979;28;20078;-79
2021/10/08 08:45:46;;;;;;;4.45;4.05;;;17.80;99.60;;;;;;6251637;28;20374;-79
2021/10/08 08:48:48;;;;;;;5.30;4.80;;;18.20;99.90;;;;;;6269997;28;20029;-78
2021/10/08 08:51:49;;;;;;;4.93;4.43;;;18.50;98.40;;;;;;6251990;28;20651;-79
2021/10/08 08:54:51;;;;;;;4.55;4.10;;;19.20;97.50;;;;;;6235281;28;20459;-78
2021/10/08 08:57:52;;;;;;;4.78;4.18;;;20.00;95.80;;;;;;6251396;28;20053;-79
2021/10/08 09:00:58;;;;;;;5.35;4.13;;;20.90;92.90;;;;;;6235444;28;20060;-79
2021/10/08 09:04:03;;;;;;;4.72;4.25;;;20.80;92.50;;;;;;6251787;28;20451;-78
2021/10/08 09:07:03;;;;;;;5.53;4.60;;;19.70;94.00;;;;;;6251550;28;20037;-78
2021/10/08 09:10:11;;;;;;;6.57;5.95;;;19.70;93.90;;;;;;6251569;28;20057;-79
2021/10/08 09:13:14;;;;;;;4.95;4.45;;;20.00;99.90;;;;;;6234643;28;20033;-79
2021/10/08 09:16:15;;;;;;;7.20;5.82;;;19.90;94.40;;;;;;6251248;28;20128;-79
2021/10/08 09:19:16;;;;;;;5.10;4.60;;;20.50;93.70;;;;;;6269104;28;20485;-79
2021/10/08 09:22:17;;;;;;;5.63;4.90;;;19.80;99.30;;;;;;6251638;28;20367;-79
2021/10/08 09:25:35;;;;;;;5.13;4.63;;;19.80;99.60;;;;;;6218112;28;20069;-79
2021/10/08 09:28:58;;;;;;;5.63;4.70;;;20.10;99.90;;;;;;6269113;28;20039;-79
2021/10/08 09:31:59;;;;;;;7.82;5.40;;;20.50;99.90;;;;;;6219128;28;20025;-79
2021/10/08 09:35:05;;;;;;;5.75;5.10;;;20.20;99.90;;;;;;6268975;28;20040;-79
2021/10/08 09:38:11;;;;;;;5.03;4.53;;;20.20;99.90;;;;;;6234401;28;20025;-79
2021/10/08 09:41:12;;;;;;;4.68;4.28;;;20.50;99.90;;;;;;6234754;28;20041;-79
2021/10/08 09:44:13;;;;;;;5.18;4.68;;;;;;;;;;6234453;28;20122;-79
2021/10/08 09:47:21;;;;;;;4.40;4.00;;;20.40;99.90;;;;;;6269102;28;20025;-78
2021/10/08 09:50:21;;;;;;;12.15;10.93;;;20.40;99.90;;;;;;6250238;28;20111;-79
2021/10/08 09:53:22;;;;;;;14.30;12.85;;;20.00;99.90;;;;;;6250714;28;20036;-78
2021/10/08 09:56:29;;;;;;;7.15;6.45;;;20.10;97.10;;;;;;6233637;28;20041;-79
2021/10/08 09:59:39;;;;;;;6.72;5.65;;;20.00;92.70;;;;;;6268149;28;20017;-79
2021/10/08 10:02:42;;;;;;;7.05;6.40;;;19.70;93.40;;;;;;6233526;28;20379;-79
2021/10/08 10:05:44;;;;;;;6.32;5.65;;;20.00;92.90;;;;;;6250138;28;20040;-78
2021/10/08 10:08:44;;;;;;;6.05;5.45;;;20.00;92.90;;;;;;6250138;28;20056;-79
2021/10/08 10:11:45;;;;;;;7.95;6.10;;;20.20;92.50;;;;;;6250495;28;20099;-79
2021/10/08 10:14:47;;;;;;;8.93;6.93;;;19.90;99.90;;;;;;6249885;28;20107;-79
2021/10/08 10:17:48;;;;;;;7.78;7.00;;;19.80;92.80;;;;;;6250268;28;20055;-79
2021/10/08 10:20:50;;;;;;;7.15;6.38;;;19.80;92.70;;;;;;6250356;28;20025;-79
2021/10/08 10:23:51;;;;;;;7.15;6.40;;;20.00;93.70;;;;;;6249939;28;20111;-78
2021/10/08 10:26:53;;;;;;;10.75;6.90;;;19.70;92.70;;;;;;6249847;28;20048;-79
2021/10/08 10:29:53;;;;;;;7.37;6.67;;;19.70;92.90;;;;;;6233679;28;20033;-79
2021/10/08 10:32:54;;;;;;;7.82;6.63;;;19.80;92.70;;;;;;6249169;28;20278;-79
2021/10/08 10:36:02;;;;;;;7.63;6.93;;;19.90;92.60;;;;;;6267758;28;20148;-79
2021/10/08 10:39:12;;;;;;;7.85;6.95;;;20.00;91.90;;;;;;6250611;28;20036;-79
2021/10/08 10:42:14;;;;;;;10.52;7.78;;;19.60;93.30;;;;;;6267562;28;20029;-79
2021/10/08 10:45:22;;;;;;;8.77;7.80;;;19.30;92.60;;;;;;6217427;28;20374;-78
2021/10/08 10:48:27;;;;;;;9.18;8.25;;;19.40;93.30;;;;;;6250584;28;20033;-79
2021/10/08 10:51:28;;;;;;;10.48;9.07;;;19.40;93.40;;;;;;6252724;28;20060;-78
2021/10/08 10:54:37;;;;;;;10.07;8.38;;;19.50;94.10;;;;;;6237693;28;20041;-78
2021/10/08 10:57:41;;;;;;;8.93;7.97;;;19.50;93.20;;;;;;6271647;28;20044;-78
2021/10/08 11:00:45;;;;;;;10.07;8.02;;;19.50;92.90;;;;;;6271473;28;20013;-79
2021/10/08 11:03:46;;;;;;;10.20;8.25;;;19.40;93.00;;;;;;6237550;28;20203;-79
2021/10/08 11:07:06;;;;;;;10.55;8.75;;;19.10;93.60;;;;;;6237109;28;20049;-79
2021/10/08 11:10:07;;;;;;;11.07;9.40;;;;;;;;;;6254173;28;20446;-79
2021/10/08 11:13:24;;;;;;;9.50;8.60;;;19.30;93.20;;;;;;6254091;28;20049;-78
2021/10/08 11:16:29;;;;;;;10.13;9.10;;;19.10;92.90;;;;;;6246935;28;20045;-80
2021/10/08 11:19:38;;;;;;;10.30;8.70;;;18.90;93.80;;;;;;6213380;28;20084;-82
2021/10/08 11:22:45;;;;;;;10.15;8.63;;;19.00;94.40;;;;;;6236624;28;20128;-79
2021/10/08 11:25:51;;;;;;;11.65;9.25;;;19.30;93.80;;;;;;6230845;28;20033;-79
2021/10/08 11:28:54;;;;;;;11.27;8.38;;;19.70;93.40;;;;;;6212833;28;20056;-79
2021/10/08 11:32:02;;;;;;;10.07;9.07;;;18.20;92.90;;;;;;6218688;28;20025;-79
2021/10/08 11:35:04;;;;;;;9.80;8.65;;;19.10;93.50;;;;;;6219672;28;20029;-79
2021/10/08 11:38:04;;;;;;;11.07;9.33;;;18.90;94.30;;;;;;6230329;28;20140;-79
2021/10/08 11:41:18;;;;;;;10.52;9.43;;;18.90;94.40;;;;;;6211854;28;20033;-79
2021/10/08 11:48:23;;;;;;;10.73;9.40;;;18.50;94.20;;;;;;6249268;28;20037;-79
2021/10/08 11:51:24;;;;;;;10.13;9.07;;;18.10;95.80;;;;;;6230070;28;20390;-80
2021/10/08 11:54:25;;;;;;;12.55;9.93;;;18.10;95.00;;;;;;6228319;28;20029;-79
2021/10/08 11:58:32;;;;;;;;;;;;;;;;;;;;;
2021/10/08 12:02:14;;;;;;;12.52;9.85;;;18.50;94.50;;;;;;6246348;28;20021;-79
2021/10/08 12:05:15;;;;;;;11.05;9.85;;;;;;;;;;6242364;28;20025;-80
2021/10/08 12:08:20;;;;;;;13.93;9.63;;;18.50;94.20;;;;;;6246179;28;20470;-83
2021/10/08 12:11:21;;;;;;;12.25;9.57;;;18.20;95.40;;;;;;6212374;28;20036;-78
2021/10/08 12:14:22;;;;;;;12.10;9.07;;;18.00;96.10;;;;;;6245739;28;20337;-78
2021/10/08 12:17:22;;;;;;;10.32;8.82;;;17.70;96.40;;;;;;6242873;28;20049;-78
2021/10/08 12:20:31;;;;;;;11.15;9.25;;;17.50;97.50;;;;;;6252387;28;20033;-79
2021/10/08 12:23:32;;;;;;;12.68;10.48;;;17.30;97.60;;;;;;6252537;28;20084;-80
2021/10/08 12:26:34;;;;;;;12.55;9.95;;;17.30;98.20;;;;;;6235949;28;20043;-80
2021/10/08 12:29:39;;;;;;;11.23;9.63;;;17.30;97.80;;;;;;6252638;28;20023;-79
2021/10/08 12:32:40;;;;;;;11.60;9.68;;;17.50;97.90;;;;;;6255444;28;20471;-79
2021/10/08 12:35:40;;;;;;;12.38;9.00;;;17.70;98.70;;;;;;6235652;28;20056;-79
2021/10/08 12:39:17;;;;;;;10.30;8.98;;;17.60;97.80;;;;;;6251891;28;20356;-80
2021/10/08 12:42:24;;;;;;;9.65;8.65;;;17.60;96.80;;;;;;6153146;28;20050;-80
2021/10/08 12:45:37;;;;;;;11.27;8.70;;;17.50;98.00;;;;;;6167967;28;20564;-79
2021/10/08 12:48:38;;;;;;;11.70;9.38;;;17.60;98.20;;;;;;6153205;28;20034;-81
2021/10/08 12:51:49;;;;;;;10.75;8.73;;;17.90;98.20;;;;;;6167281;28;20464;-80
2021/10/08 12:55:09;;;;;;;9.07;8.18;;;18.00;96.70;;;;;;6152161;28;20441;-80
2021/10/08 12:58:25;;;;;;;12.27;9.35;;;18.10;95.60;;;;;;6153064;28;20485;-80
2021/10/08 13:01:25;;;;;;;21.40;15.82;;;18.10;96.10;;;;;;6168712;28;20039;-80
2021/10/08 13:04:26;;;;;;;9.88;8.23;;;17.60;99.90;;;;;;6152348;28;20097;-79
2021/10/08 13:07:26;;;;;;;10.05;8.82;;;17.50;99.90;;;;;;6168651;28;20039;-81
2021/10/08 13:10:27;;;;;;;12.52;8.65;;;17.70;99.90;;;;;;6167765;28;20049;-77
2021/10/08 13:13:32;;;;;;;9.95;8.43;;;17.60;99.90;;;;;;6167920;28;20084;-78
2021/10/08 13:16:33;;;;;;;9.35;8.30;;;17.50;99.90;;;;;;6167707;28;20582;-79
2021/10/08 13:19:35;;;;;;;9.20;7.70;;;17.40;99.90;;;;;;6236805;28;20025;-78
2021/10/08 13:22:39;;;;;;;10.63;8.18;;;17.60;99.90;;;;;;6239192;28;20749;-81
2021/10/08 13:25:43;;;;;;;10.90;8.68;;;18.70;99.90;;;;;;6257397;28;20555;-78
2021/10/08 13:28:44;;;;;;;10.57;7.70;;;;;;;;;;6237126;28;20075;-78
2021/10/08 13:31:45;;;;;;;10.95;8.27;;;;;;;;;;6255063;28;20418;-77
2021/10/08 13:34:46;;;;;;;12.43;8.55;;;17.60;99.90;;;;;;6268373;28;20037;-78
2021/10/08 13:37:46;;;;;;;10.95;7.50;;;17.50;99.90;;;;;;6268347;28;20017;-78
2021/10/08 13:40:48;;;;;;;9.07;7.88;;;;;;;;;;6250890;28;20035;-78
2021/10/08 13:43:48;;;;;;;9.73;8.48;;;17.40;99.90;;;;;;6251367;28;20067;-78
2021/10/08 13:46:49;;;;;;;9.43;8.00;;;17.10;99.90;;;;;;6268148;28;20037;-79
2021/10/08 13:49:49;;;;;;;10.27;8.02;;;17.00;99.90;;;;;;6268019;28;20060;-77
2021/10/08 13:52:50;;;;;;;10.45;8.43;;;16.90;99.70;;;;;;6251866;28;20033;-78
2021/10/08 13:55:50;;;;;;;8.45;7.65;;;17.10;99.90;;;;;;6254146;28;20382;-77
2021/10/08 13:58:51;;;;;;;9.80;8.40;;;17.20;99.90;;;;;;6257387;28;20029;-78
2021/10/08 14:08:42;;;;;;;11.70;7.28;;;17.10;99.20;;;;;;6267706;28;20056;-77
2021/10/08 14:11:42;;;;;;;8.93;7.82;;;17.10;98.10;;;;;;6267906;28;20017;-77
2021/10/08 14:14:43;;;;;;;9.40;7.80;;;17.10;99.70;;;;;;6250072;28;20036;-77
2021/10/08 14:17:44;;;;;;;10.38;8.32;;;17.10;99.50;;;;;;6268189;28;20053;-78
2021/10/08 14:20:44;;;;;;;9.32;8.25;;;17.20;99.90;;;;;;6267879;28;20120;-78
2021/10/08 14:23:45;;;;;;;9.77;8.25;;;17.00;99.70;;;;;;6267910;28;20032;-77
2021/10/08 14:26:45;;;;;;;8.70;7.63;;;16.90;99.90;;;;;;6254524;28;20693;-78
2021/10/08 14:29:46;;;;;;;10.18;8.32;;;16.70;99.90;;;;;;6273108;28;20029;-78
2021/10/08 14:32:47;;;;;;;9.25;8.20;;;16.70;99.90;;;;;;6272202;28;20033;-78
2021/10/08 14:35:47;;;;;;;10.70;8.55;;;16.60;99.90;;;;;;6254697;28;20025;-78
2021/10/08 14:38:48;;;;;;;11.13;7.93;;;16.60;99.90;;;;;;6272837;28;20040;-78
2021/10/08 14:41:48;;;;;;;9.63;8.57;;;16.60;99.90;;;;;;6252556;28;20558;-77
2021/10/08 14:44:49;;;;;;;9.32;7.85;;;16.50;99.90;;;;;;6272350;28;20358;-77
2021/10/08 14:47:50;;;;;;;10.20;8.05;;;16.50;99.90;;;;;;6254532;28;20504;-77
2021/10/08 14:50:50;;;;;;;9.15;7.75;;;16.40;99.90;;;;;;6272141;28;20082;-77
2021/10/08 14:53:51;;;;;;;9.93;8.40;;;16.40;99.90;;;;;;6259306;28;20021;-78
2021/10/08 15:00:01;;;;;;;9.38;8.10;;;16.50;99.90;;;;;;6257410;28;20051;-77
2021/10/08 15:03:12;;;;;;;11.73;8.52;;;16.50;99.90;;;;;;6258380;28;20474;-79
2021/10/08 15:06:13;;;;;;;10.48;8.93;;;16.50;99.90;;;;;;6262452;28;20029;-77
2021/10/08 15:09:14;;;;;;;12.40;7.95;;;16.40;99.90;;;;;;6271546;28;20036;-77
2021/10/08 15:12:14;;;;;;;10.32;8.98;;;16.20;99.90;;;;;;6272016;28;20462;-77
2021/10/08 15:15:15;;;;;;;10.80;8.07;;;16.10;99.90;;;;;;6271632;28;20028;-77
2021/10/08 15:18:15;;;;;;;9.48;8.45;;;16.10;99.90;;;;;;6253654;28;20052;-77
2021/10/08 15:21:16;;;;;;;10.73;8.65;;;16.00;99.90;;;;;;6271563;28;20386;-78
2021/10/08 15:24:17;;;;;;;9.70;8.35;;;16.00;99.90;;;;;;6253993;28;20043;-78
2021/10/08 15:27:19;;;;;;;9.90;7.65;;;16.10;99.90;;;;;;6271870;28;20052;-76
2021/10/08 15:30:21;;;;;;;10.20;8.85;;;16.10;99.90;;;;;;6271859;28;20079;-77
2021/10/08 15:33:22;;;;;;;;;;;16.10;99.90;;;;;;6254229;28;20359;-78
2021/10/08 15:36:22;;;;;;;9.00;7.97;;;16.00;99.90;;;;;;6270531;28;20904;-77
2021/10/08 15:39:23;;;;;;;12.25;8.40;;;16.00;99.90;;;;;;6259150;28;20473;-77
2021/10/08 15:42:25;;;;;;;12.63;9.35;;;16.00;99.90;;;;;;6271173;28;20033;-76
2021/10/08 15:45:26;;;;;;;10.75;9.63;;;15.90;99.90;;;;;;6270808;28;20037;-76
2021/10/08 15:48:29;;;;;;;10.43;8.40;;;15.80;99.90;;;;;;6270728;28;20065;-76
2021/10/08 15:51:29;;;;;;;9.80;8.27;;;15.80;99.90;;;;;;6270861;28;20029;-76
2021/10/08 15:54:30;;;;;;;10.18;8.60;;;15.70;99.90;;;;;;6270705;28;20528;-77
2021/10/08 15:57:31;;;;;;;11.23;9.75;;;15.70;99.90;;;;;;6270004;28;20030;-77
2021/10/08 16:00:31;;;;;;;11.60;9.10;;;15.60;99.90;;;;;;6252509;28;20074;-77
2021/10/08 16:03:32;;;;;;;13.90;9.48;;;15.50;99.90;;;;;;6270171;28;20032;-76
2021/10/08 16:06:32;;;;;;;10.82;9.45;;;15.40;99.90;;;;;;6252705;28;20067;-78
2021/10/08 16:09:33;;;;;;;10.30;9.20;;;15.40;99.90;;;;;;6271053;28;20048;-78
2021/10/08 16:12:34;;;;;;;11.70;10.07;;;15.30;99.90;;;;;;6248850;28;20035;-76
2021/10/08 16:15:35;;;;;;;9.48;8.32;;;15.30;99.90;;;;;;6270141;28;20029;-78
2021/10/08 16:19:22;;;;;;;11.35;8.55;;;15.20;99.90;;;;;;6252908;28;20102;-80